sensor_id;sensor_type;location;lat;lon;timestamp;temperature;humidity
2913;DHT22;1466;48.778;9.166;2022-09-17T00:00:04;13.60;99.90
2913;DHT22;1466;48.778;9.166;2022-09-17T00:02:30;13.60;99.90
2913;DHT22;1466;48.778;9.166;2022-09-17T00:04:55;13.60;99.90
2913;DHT22;1466;48.778;9.166;2022-09-17T00:07:21;13.60;99.90
2913;DHT22;1466;48.778;9.166;2022-09-17T00:09:47;13.50;99.90
2913;DHT22;1466;48.778;9.166;2022-09-17T00:12:12;13.50;99.90
2913;DHT22;1466;48.778;9.166;2022-09-17T00:14:39;13.50;99.90
2913;DHT22;1466;48.778;9.166;2022-09-17T00:17:05;13.60;99.90
2913;DHT22;1466;48.778;9.166;2022-09-17T00:19:30;13.50;99.90
2913;DHT22;1466;48.778;9.166;2022-09-17T00:21:56;13.50;99.90
2913;DHT22;1466;48.778;9.166;2022-09-17T00:24:21;13.60;99.90
2913;DHT22;1466;48.778;9.166;2022-09-17T00:26:47;13.50;99.90
2913;DHT22;1466;48.778;9.166;2022-09-17T00:29:13;13.60;99.90
2913;DHT22;1466;48.778;9.166;2022-09-17T00:31:39;13.60;99.90
2913;DHT22;1466;48.778;9.166;2022-09-17T00:34:05;13.60;99.90
2913;DHT22;1466;48.778;9.166;2022-09-17T00:36:33;13.60;99.90
2913;DHT22;1466;48.778;9.166;2022-09-17T00:38:59;13.70;99.90
2913;DHT22;1466;48.778;9.166;2022-09-17T00:41:31;13.60;99.90
2913;DHT22;1466;48.778;9.166;2022-09-17T00:43:59;13.60;99.90
2913;DHT22;1466;48.778;9.166;2022-09-17T00:46:43;13.50;99.90
2913;DHT22;1466;48.778;9.166;2022-09-17T00:49:12;13.50;99.90
2913;DHT22;1466;48.778;9.166;2022-09-17T00:51:43;13.60;99.90
2913;DHT22;1466;48.778;9.166;2022-09-17T00:54:11;13.60;99.90
2913;DHT22;1466;48.778;9.166;2022-09-17T00:56:40;13.60;99.90
2913;DHT22;1466;48.778;9.166;2022-09-17T00:59:07;13.50;99.90
2913;DHT22;1466;48.778;9.166;2022-09-17T01:01:34;13.50;99.90
2913;DHT22;1466;48.778;9.166;2022-09-17T01:04:00;13.40;99.90
2913;DHT22;1466;48.778;9.166;2022-09-17T01:06:52;13.30;99.90
2913;DHT22;1466;48.778;9.166;2022-09-17T01:09:31;13.20;99.90
2913;DHT22;1466;48.778;9.166;2022-09-17T01:20:33;13.30;99.90
2913;DHT22;1466;48.778;9.166;2022-09-17T01:34:29;13.20;99.90
2913;DHT22;1466;48.778;9.166;2022-09-17T01:37:12;13.00;99.90
2913;DHT22;1466;48.778;9.166;2022-09-17T01:39:47;13.00;99.90
2913;DHT22;1466;48.778;9.166;2022-09-17T01:42:27;13.00;99.90
2913;DHT22;1466;48.778;9.166;2022-09-17T01:45:15;13.00;99.90
2913;DHT22;1466;48.778;9.166;2022-09-17T01:47:56;13.00;99.90
2913;DHT22;1466;48.778;9.166;2022-09-17T01:50:32;13.10;99.90
2913;DHT22;1466;48.778;9.166;2022-09-17T01:53:02;13.00;99.90
2913;DHT22;1466;48.778;9.166;2022-09-17T01:55:34;13.00;99.90
2913;DHT22;1466;48.778;9.166;2022-09-17T02:00:37;13.00;99.90
2913;DHT22;1466;48.778;9.166;2022-09-17T02:03:05;13.00;99.90
2913;DHT22;1466;48.778;9.166;2022-09-17T02:05:49;13.00;99.90
2913;DHT22;1466;48.778;9.166;2022-09-17T02:08:23;13.00;99.90
2913;DHT22;1466;48.778;9.166;2022-09-17T02:11:08;13.00;99.90
2913;DHT22;1466;48.778;9.166;2022-09-17T02:13:46;13.10;99.90
2913;DHT22;1466;48.778;9.166;2022-09-17T02:16:25;13.00;99.90
2913;DHT22;1466;48.778;9.166;2022-09-17T02:26:59;12.90;99.90
2913;DHT22;1466;48.778;9.166;2022-09-17T02:29:44;12.90;99.90
2913;DHT22;1466;48.778;9.166;2022-09-17T02:32:11;12.80;99.90
2913;DHT22;1466;48.778;9.166;2022-09-17T02:34:37;12.90;99.90
2913;DHT22;1466;48.778;9.166;2022-09-17T02:37:04;12.90;99.90
2913;DHT22;1466;48.778;9.166;2022-09-17T02:39:30;13.00;99.90
2913;DHT22;1466;48.778;9.166;2022-09-17T02:48:19;13.20;99.90
2913;DHT22;1466;48.778;9.166;2022-09-17T02:56:42;13.00;99.90
2913;DHT22;1466;48.778;9.166;2022-09-17T03:04:29;12.90;99.90
2913;DHT22;1466;48.778;9.166;2022-09-17T03:06:55;12.90;99.90
2913;DHT22;1466;48.778;9.166;2022-09-17T03:09:22;12.90;99.90
2913;DHT22;1466;48.778;9.166;2022-09-17T03:11:48;13.00;99.90
2913;DHT22;1466;48.778;9.166;2022-09-17T03:14:13;13.00;99.90
2913;DHT22;1466;48.778;9.166;2022-09-17T03:16:39;13.00;99.90
2913;DHT22;1466;48.778;9.166;2022-09-17T03:19:04;13.00;99.90
2913;DHT22;1466;48.778;9.166;2022-09-17T03:21:30;12.90;99.90
2913;DHT22;1466;48.778;9.166;2022-09-17T03:23:56;12.90;99.90
2913;DHT22;1466;48.778;9.166;2022-09-17T03:26:25;12.90;99.90
2913;DHT22;1466;48.778;9.166;2022-09-17T03:28:50;12.90;99.90
2913;DHT22;1466;48.778;9.166;2022-09-17T03:31:16;12.80;99.90
2913;DHT22;1466;48.778;9.166;2022-09-17T03:33:41;12.70;99.90
2913;DHT22;1466;48.778;9.166;2022-09-17T03:36:07;12.70;99.90
2913;DHT22;1466;48.778;9.166;2022-09-17T03:38:32;12.60;99.90
2913;DHT22;1466;48.778;9.166;2022-09-17T03:41:05;12.60;99.90
2913;DHT22;1466;48.778;9.166;2022-09-17T03:43:32;12.60;99.90
2913;DHT22;1466;48.778;9.166;2022-09-17T03:45:57;12.60;99.90
2913;DHT22;1466;48.778;9.166;2022-09-17T03:48:23;12.60;99.90
2913;DHT22;1466;48.778;9.166;2022-09-17T03:50:48;12.60;99.90
2913;DHT22;1466;48.778;9.166;2022-09-17T03:53:15;12.60;99.90
2913;DHT22;1466;48.778;9.166;2022-09-17T03:55:40;12.60;99.90
2913;DHT22;1466;48.778;9.166;2022-09-17T03:58:06;12.70;99.90
2913;DHT22;1466;48.778;9.166;2022-09-17T04:00:32;12.70;99.90
2913;DHT22;1466;48.778;9.166;2022-09-17T04:02:57;12.70;99.90
2913;DHT22;1466;48.778;9.166;2022-09-17T04:05:23;12.70;99.90
2913;DHT22;1466;48.778;9.166;2022-09-17T04:07:49;12.60;99.90
2913;DHT22;1466;48.778;9.166;2022-09-17T04:10:15;12.60;99.90
2913;DHT22;1466;48.778;9.166;2022-09-17T04:12:41;12.50;99.90
2913;DHT22;1466;48.778;9.166;2022-09-17T04:15:07;12.50;99.90
2913;DHT22;1466;48.778;9.166;2022-09-17T04:17:33;12.40;99.90
2913;DHT22;1466;48.778;9.166;2022-09-17T04:19:58;12.40;99.90
2913;DHT22;1466;48.778;9.166;2022-09-17T04:22:24;12.40;99.90
2913;DHT22;1466;48.778;9.166;2022-09-17T04:24:50;12.40;99.90
2913;DHT22;1466;48.778;9.166;2022-09-17T04:27:16;12.30;99.90
2913;DHT22;1466;48.778;9.166;2022-09-17T04:29:42;12.30;99.90
2913;DHT22;1466;48.778;9.166;2022-09-17T04:32:07;12.30;99.90
2913;DHT22;1466;48.778;9.166;2022-09-17T04:34:33;12.20;99.90
2913;DHT22;1466;48.778;9.166;2022-09-17T04:36:59;12.20;99.90
2913;DHT22;1466;48.778;9.166;2022-09-17T04:39:24;12.20;99.90
2913;DHT22;1466;48.778;9.166;2022-09-17T04:41:50;12.20;99.90
2913;DHT22;1466;48.778;9.166;2022-09-17T04:44:15;12.20;99.90
2913;DHT22;1466;48.778;9.166;2022-09-17T04:46:41;12.20;99.90
2913;DHT22;1466;48.778;9.166;2022-09-17T04:49:06;12.20;99.90
2913;DHT22;1466;48.778;9.166;2022-09-17T04:51:33;12.20;99.90
2913;DHT22;1466;48.778;9.166;2022-09-17T04:53:58;12.10;99.90
2913;DHT22;1466;48.778;9.166;2022-09-17T04:56:24;12.20;99.90
2913;DHT22;1466;48.778;9.166;2022-09-17T04:58:50;12.20;99.90
2913;DHT22;1466;48.778;9.166;2022-09-17T05:01:15;12.20;99.90
2913;DHT22;1466;48.778;9.166;2022-09-17T05:03:43;12.10;99.90
2913;DHT22;1466;48.778;9.166;2022-09-17T05:06:09;12.20;99.90
2913;DHT22;1466;48.778;9.166;2022-09-17T05:08:35;12.20;99.90
2913;DHT22;1466;48.778;9.166;2022-09-17T05:11:01;12.20;99.90
2913;DHT22;1466;48.778;9.166;2022-09-17T05:13:26;12.20;99.90
2913;DHT22;1466;48.778;9.166;2022-09-17T05:15:54;12.30;99.90
2913;DHT22;1466;48.778;9.166;2022-09-17T05:18:21;12.40;99.90
2913;DHT22;1466;48.778;9.166;2022-09-17T05:20:46;12.30;99.90
2913;DHT22;1466;48.778;9.166;2022-09-17T05:23:12;12.40;99.90
2913;DHT22;1466;48.778;9.166;2022-09-17T05:25:37;12.50;99.90
2913;DHT22;1466;48.778;9.166;2022-09-17T05:28:03;12.50;99.90
2913;DHT22;1466;48.778;9.166;2022-09-17T05:30:29;12.60;99.90
2913;DHT22;1466;48.778;9.166;2022-09-17T05:33:02;12.60;99.90
2913;DHT22;1466;48.778;9.166;2022-09-17T05:35:28;12.70;99.90
2913;DHT22;1466;48.778;9.166;2022-09-17T05:38:02;12.70;99.90
2913;DHT22;1466;48.778;9.166;2022-09-17T05:40:27;12.70;99.90
2913;DHT22;1466;48.778;9.166;2022-09-17T05:43:01;12.60;99.90
2913;DHT22;1466;48.778;9.166;2022-09-17T05:45:28;12.50;99.90
2913;DHT22;1466;48.778;9.166;2022-09-17T05:47:55;12.50;99.90
2913;DHT22;1466;48.778;9.166;2022-09-17T05:50:21;12.50;99.90
2913;DHT22;1466;48.778;9.166;2022-09-17T05:52:48;12.50;99.90
2913;DHT22;1466;48.778;9.166;2022-09-17T05:55:13;12.60;99.90
2913;DHT22;1466;48.778;9.166;2022-09-17T05:57:39;12.50;99.90
2913;DHT22;1466;48.778;9.166;2022-09-17T06:00:05;12.40;99.90
2913;DHT22;1466;48.778;9.166;2022-09-17T06:02:30;12.50;99.90
2913;DHT22;1466;48.778;9.166;2022-09-17T06:04:56;12.50;99.90
2913;DHT22;1466;48.778;9.166;2022-09-17T06:07:25;12.50;99.90
2913;DHT22;1466;48.778;9.166;2022-09-17T06:09:50;12.50;99.90
2913;DHT22;1466;48.778;9.166;2022-09-17T06:12:16;12.50;99.90
2913;DHT22;1466;48.778;9.166;2022-09-17T06:14:41;12.50;99.90
2913;DHT22;1466;48.778;9.166;2022-09-17T06:17:07;12.50;99.90
2913;DHT22;1466;48.778;9.166;2022-09-17T06:19:33;12.50;99.90
2913;DHT22;1466;48.778;9.166;2022-09-17T06:21:58;12.60;99.90
2913;DHT22;1466;48.778;9.166;2022-09-17T06:24:24;12.60;99.90
2913;DHT22;1466;48.778;9.166;2022-09-17T06:26:51;12.70;99.90
2913;DHT22;1466;48.778;9.166;2022-09-17T06:29:16;12.70;99.90
2913;DHT22;1466;48.778;9.166;2022-09-17T06:31:42;12.70;99.90
2913;DHT22;1466;48.778;9.166;2022-09-17T06:34:09;12.70;99.90
2913;DHT22;1466;48.778;9.166;2022-09-17T06:36:34;12.70;99.90
2913;DHT22;1466;48.778;9.166;2022-09-17T06:39:00;12.80;99.90
2913;DHT22;1466;48.778;9.166;2022-09-17T06:41:26;12.70;99.90
2913;DHT22;1466;48.778;9.166;2022-09-17T06:43:54;12.90;99.90
2913;DHT22;1466;48.778;9.166;2022-09-17T06:46:20;12.80;99.90
2913;DHT22;1466;48.778;9.166;2022-09-17T06:48:45;12.90;99.90
2913;DHT22;1466;48.778;9.166;2022-09-17T06:51:11;13.10;99.90
2913;DHT22;1466;48.778;9.166;2022-09-17T06:53:37;13.20;99.90
2913;DHT22;1466;48.778;9.166;2022-09-17T06:56:04;13.20;99.90
2913;DHT22;1466;48.778;9.166;2022-09-17T06:58:31;13.20;99.90
2913;DHT22;1466;48.778;9.166;2022-09-17T07:01:03;13.20;99.90
2913;DHT22;1466;48.778;9.166;2022-09-17T07:03:30;13.20;99.90
2913;DHT22;1466;48.778;9.166;2022-09-17T07:05:56;13.20;99.90
2913;DHT22;1466;48.778;9.166;2022-09-17T07:08:22;13.20;99.90
2913;DHT22;1466;48.778;9.166;2022-09-17T07:10:48;13.20;99.90
2913;DHT22;1466;48.778;9.166;2022-09-17T07:13:13;13.20;99.90
2913;DHT22;1466;48.778;9.166;2022-09-17T07:15:39;13.10;99.90
2913;DHT22;1466;48.778;9.166;2022-09-17T07:18:09;13.00;99.90
2913;DHT22;1466;48.778;9.166;2022-09-17T07:20:35;12.80;99.90
2913;DHT22;1466;48.778;9.166;2022-09-17T07:23:00;12.60;99.90
2913;DHT22;1466;48.778;9.166;2022-09-17T07:25:26;12.60;99.90
2913;DHT22;1466;48.778;9.166;2022-09-17T07:27:52;12.50;99.90
2913;DHT22;1466;48.778;9.166;2022-09-17T07:30:19;12.40;99.90
2913;DHT22;1466;48.778;9.166;2022-09-17T07:32:45;12.40;99.90
2913;DHT22;1466;48.778;9.166;2022-09-17T07:35:11;12.30;99.90
2913;DHT22;1466;48.778;9.166;2022-09-17T07:37:37;12.30;99.90
2913;DHT22;1466;48.778;9.166;2022-09-17T07:40:03;12.30;99.90
2913;DHT22;1466;48.778;9.166;2022-09-17T07:42:32;12.30;99.90
2913;DHT22;1466;48.778;9.166;2022-09-17T07:44:58;12.20;99.90
2913;DHT22;1466;48.778;9.166;2022-09-17T07:47:24;12.20;99.90
2913;DHT22;1466;48.778;9.166;2022-09-17T07:49:49;12.20;99.90
2913;DHT22;1466;48.778;9.166;2022-09-17T07:52:15;12.20;99.90
2913;DHT22;1466;48.778;9.166;2022-09-17T07:54:40;12.30;99.90
2913;DHT22;1466;48.778;9.166;2022-09-17T07:57:06;12.30;99.90
2913;DHT22;1466;48.778;9.166;2022-09-17T07:59:32;12.30;99.90
2913;DHT22;1466;48.778;9.166;2022-09-17T08:01:58;12.40;99.90
2913;DHT22;1466;48.778;9.166;2022-09-17T08:04:23;12.50;99.90
2913;DHT22;1466;48.778;9.166;2022-09-17T08:06:49;12.60;99.90
2913;DHT22;1466;48.778;9.166;2022-09-17T08:09:15;12.70;99.90
2913;DHT22;1466;48.778;9.166;2022-09-17T08:11:42;12.80;99.90
2913;DHT22;1466;48.778;9.166;2022-09-17T08:14:13;12.70;99.90
2913;DHT22;1466;48.778;9.166;2022-09-17T08:16:39;12.80;99.90
2913;DHT22;1466;48.778;9.166;2022-09-17T08:19:05;12.80;99.90
2913;DHT22;1466;48.778;9.166;2022-09-17T08:21:30;12.80;99.90
2913;DHT22;1466;48.778;9.166;2022-09-17T08:23:56;12.80;99.90
2913;DHT22;1466;48.778;9.166;2022-09-17T08:26:23;12.90;99.90
2913;DHT22;1466;48.778;9.166;2022-09-17T08:28:51;12.90;99.90
2913;DHT22;1466;48.778;9.166;2022-09-17T08:31:20;13.00;99.90
2913;DHT22;1466;48.778;9.166;2022-09-17T08:33:46;13.00;99.90
2913;DHT22;1466;48.778;9.166;2022-09-17T08:36:14;13.10;99.90
2913;DHT22;1466;48.778;9.166;2022-09-17T08:38:40;13.00;99.90
2913;DHT22;1466;48.778;9.166;2022-09-17T08:43:52;13.20;99.90
2913;DHT22;1466;48.778;9.166;2022-09-17T08:46:19;13.20;99.90
2913;DHT22;1466;48.778;9.166;2022-09-17T08:57:23;13.40;99.90
2913;DHT22;1466;48.778;9.166;2022-09-17T09:05:29;13.50;99.90
2913;DHT22;1466;48.778;9.166;2022-09-17T09:08:05;13.40;99.90
2913;DHT22;1466;48.778;9.166;2022-09-17T09:10:53;13.50;99.90
2913;DHT22;1466;48.778;9.166;2022-09-17T09:13:21;13.70;99.90
2913;DHT22;1466;48.778;9.166;2022-09-17T09:15:57;13.90;99.90
2913;DHT22;1466;48.778;9.166;2022-09-17T09:18:28;13.90;99.90
2913;DHT22;1466;48.778;9.166;2022-09-17T09:23:54;14.00;99.90
2913;DHT22;1466;48.778;9.166;2022-09-17T09:31:43;13.90;99.90
2913;DHT22;1466;48.778;9.166;2022-09-17T09:34:13;13.90;99.90
2913;DHT22;1466;48.778;9.166;2022-09-17T09:36:39;13.90;99.90
2913;DHT22;1466;48.778;9.166;2022-09-17T09:39:23;13.90;99.90
2913;DHT22;1466;48.778;9.166;2022-09-17T09:41:59;14.00;99.90
2913;DHT22;1466;48.778;9.166;2022-09-17T09:44:28;14.20;99.90
2913;DHT22;1466;48.778;9.166;2022-09-17T09:49:59;14.30;99.90
2913;DHT22;1466;48.778;9.166;2022-09-17T09:57:45;14.20;99.90
2913;DHT22;1466;48.778;9.166;2022-09-17T10:00:31;14.20;99.90
2913;DHT22;1466;48.778;9.166;2022-09-17T10:05:39;14.30;99.90
2913;DHT22;1466;48.778;9.166;2022-09-17T10:08:15;14.30;99.90
2913;DHT22;1466;48.778;9.166;2022-09-17T10:13:40;14.60;99.90
2913;DHT22;1466;48.778;9.166;2022-09-17T10:16:23;14.70;99.90
2913;DHT22;1466;48.778;9.166;2022-09-17T10:21:33;14.80;99.90
2913;DHT22;1466;48.778;9.166;2022-09-17T10:24:00;14.90;99.90
2913;DHT22;1466;48.778;9.166;2022-09-17T10:26:32;15.10;99.90
2913;DHT22;1466;48.778;9.166;2022-09-17T10:29:02;15.20;99.40
2913;DHT22;1466;48.778;9.166;2022-09-17T10:31:45;15.20;98.80
2913;DHT22;1466;48.778;9.166;2022-09-17T10:34:22;15.30;98.90
2913;DHT22;1466;48.778;9.166;2022-09-17T10:36:48;15.30;98.70
2913;DHT22;1466;48.778;9.166;2022-09-17T10:44:29;15.30;98.40
2913;DHT22;1466;48.778;9.166;2022-09-17T10:47:01;15.40;98.00
2913;DHT22;1466;48.778;9.166;2022-09-17T10:49:36;15.30;97.80
2913;DHT22;1466;48.778;9.166;2022-09-17T10:52:11;15.30;98.20
2913;DHT22;1466;48.778;9.166;2022-09-17T11:00:14;15.90;97.50
2913;DHT22;1466;48.778;9.166;2022-09-17T11:08:28;16.30;95.60
2913;DHT22;1466;48.778;9.166;2022-09-17T11:13:52;16.60;95.40
2913;DHT22;1466;48.778;9.166;2022-09-17T11:16:38;16.60;95.00
2913;DHT22;1466;48.778;9.166;2022-09-17T11:19:49;16.50;95.40
2913;DHT22;1466;48.778;9.166;2022-09-17T11:27:56;16.60;94.50
2913;DHT22;1466;48.778;9.166;2022-09-17T11:30:29;16.40;94.10
2913;DHT22;1466;48.778;9.166;2022-09-17T11:33:18;16.40;93.60
2913;DHT22;1466;48.778;9.166;2022-09-17T11:35:56;16.50;93.20
2913;DHT22;1466;48.778;9.166;2022-09-17T11:38:34;16.50;93.80
2913;DHT22;1466;48.778;9.166;2022-09-17T11:41:09;16.40;93.30
2913;DHT22;1466;48.778;9.166;2022-09-17T11:43:43;16.60;93.30
2913;DHT22;1466;48.778;9.166;2022-09-17T11:46:21;16.80;93.00
2913;DHT22;1466;48.778;9.166;2022-09-17T11:49:10;16.70;92.20
2913;DHT22;1466;48.778;9.166;2022-09-17T11:51:43;16.60;92.20
2913;DHT22;1466;48.778;9.166;2022-09-17T11:57:20;16.80;92.20
2913;DHT22;1466;48.778;9.166;2022-09-17T12:00:05;16.70;91.40
2913;DHT22;1466;48.778;9.166;2022-09-17T12:02:51;16.80;91.70
2913;DHT22;1466;48.778;9.166;2022-09-17T12:11:00;17.10;91.30
2913;DHT22;1466;48.778;9.166;2022-09-17T12:13:41;17.00;91.20
2913;DHT22;1466;48.778;9.166;2022-09-17T12:16:24;16.70;91.50
2913;DHT22;1466;48.778;9.166;2022-09-17T12:22:05;16.00;94.60
2913;DHT22;1466;48.778;9.166;2022-09-17T12:24:32;15.80;95.50
2913;DHT22;1466;48.778;9.166;2022-09-17T12:41:02;15.50;96.60
2913;DHT22;1466;48.778;9.166;2022-09-17T12:49:27;15.70;97.30
2913;DHT22;1466;48.778;9.166;2022-09-17T12:52:01;15.40;97.30
2913;DHT22;1466;48.778;9.166;2022-09-17T12:59:43;14.70;98.70
2913;DHT22;1466;48.778;9.166;2022-09-17T13:02:33;14.60;99.30
2913;DHT22;1466;48.778;9.166;2022-09-17T13:07:52;14.60;99.10
2913;DHT22;1466;48.778;9.166;2022-09-17T13:10:50;14.40;99.50
2913;DHT22;1466;48.778;9.166;2022-09-17T13:13:25;14.40;99.90
2913;DHT22;1466;48.778;9.166;2022-09-17T13:19:03;14.20;99.90
2913;DHT22;1466;48.778;9.166;2022-09-17T13:21:36;14.10;99.90
2913;DHT22;1466;48.778;9.166;2022-09-17T13:24:16;14.00;99.90
2913;DHT22;1466;48.778;9.166;2022-09-17T13:26:43;14.10;99.90
2913;DHT22;1466;48.778;9.166;2022-09-17T13:29:10;14.00;99.90
2913;DHT22;1466;48.778;9.166;2022-09-17T13:34:26;14.10;99.90
2913;DHT22;1466;48.778;9.166;2022-09-17T13:36:55;14.20;99.90
2913;DHT22;1466;48.778;9.166;2022-09-17T13:42:24;14.40;99.90
2913;DHT22;1466;48.778;9.166;2022-09-17T13:45:02;14.50;99.90
2913;DHT22;1466;48.778;9.166;2022-09-17T13:47:30;14.60;99.90
2913;DHT22;1466;48.778;9.166;2022-09-17T13:50:01;14.70;99.90
2913;DHT22;1466;48.778;9.166;2022-09-17T13:52:31;14.80;99.90
2913;DHT22;1466;48.778;9.166;2022-09-17T13:54:58;15.00;99.90
2913;DHT22;1466;48.778;9.166;2022-09-17T13:57:25;14.90;99.90
2913;DHT22;1466;48.778;9.166;2022-09-17T13:59:54;15.00;99.90
2913;DHT22;1466;48.778;9.166;2022-09-17T14:05:22;15.10;99.90
2913;DHT22;1466;48.778;9.166;2022-09-17T14:07:50;15.20;99.90
2913;DHT22;1466;48.778;9.166;2022-09-17T14:12:49;15.40;99.90
2913;DHT22;1466;48.778;9.166;2022-09-17T14:21:04;15.70;99.90
2913;DHT22;1466;48.778;9.166;2022-09-17T14:23:34;15.70;99.90
2913;DHT22;1466;48.778;9.166;2022-09-17T14:26:07;15.70;99.90
2913;DHT22;1466;48.778;9.166;2022-09-17T14:29:03;15.50;99.90
2913;DHT22;1466;48.778;9.166;2022-09-17T14:31:34;15.50;99.90
2913;DHT22;1466;48.778;9.166;2022-09-17T14:34:03;15.50;99.90
2913;DHT22;1466;48.778;9.166;2022-09-17T14:39:36;15.60;99.90
2913;DHT22;1466;48.778;9.166;2022-09-17T14:42:08;15.60;99.80
2913;DHT22;1466;48.778;9.166;2022-09-17T14:44:47;15.60;99.60
2913;DHT22;1466;48.778;9.166;2022-09-17T14:47:16;15.80;99.90
2913;DHT22;1466;48.778;9.166;2022-09-17T14:49:44;16.00;99.70
2913;DHT22;1466;48.778;9.166;2022-09-17T14:57:53;16.00;98.50
2913;DHT22;1466;48.778;9.166;2022-09-17T15:00:27;16.00;98.40
2913;DHT22;1466;48.778;9.166;2022-09-17T15:02:56;15.90;98.40
2913;DHT22;1466;48.778;9.166;2022-09-17T15:05:35;15.90;98.70
2913;DHT22;1466;48.778;9.166;2022-09-17T15:13:25;15.90;98.80
2913;DHT22;1466;48.778;9.166;2022-09-17T15:16:06;15.80;98.90
2913;DHT22;1466;48.778;9.166;2022-09-17T15:18:42;15.70;98.70
2913;DHT22;1466;48.778;9.166;2022-09-17T15:21:30;15.60;98.90
2913;DHT22;1466;48.778;9.166;2022-09-17T15:26:36;15.50;98.80
2913;DHT22;1466;48.778;9.166;2022-09-17T15:29:04;15.50;98.80
2913;DHT22;1466;48.778;9.166;2022-09-17T15:31:30;15.50;98.70
2913;DHT22;1466;48.778;9.166;2022-09-17T15:33:59;15.40;98.60
2913;DHT22;1466;48.778;9.166;2022-09-17T15:36:26;15.40;98.50
2913;DHT22;1466;48.778;9.166;2022-09-17T15:38:52;15.40;98.50
2913;DHT22;1466;48.778;9.166;2022-09-17T15:41:27;15.50;98.50
2913;DHT22;1466;48.778;9.166;2022-09-17T15:44:19;15.60;98.30
2913;DHT22;1466;48.778;9.166;2022-09-17T15:46:47;15.50;97.70
2913;DHT22;1466;48.778;9.166;2022-09-17T15:49:33;15.50;97.70
2913;DHT22;1466;48.778;9.166;2022-09-17T15:52:25;15.50;97.90
2913;DHT22;1466;48.778;9.166;2022-09-17T15:54:52;15.50;98.00
2913;DHT22;1466;48.778;9.166;2022-09-17T15:57:21;15.50;97.90
2913;DHT22;1466;48.778;9.166;2022-09-17T15:59:47;15.50;97.90
2913;DHT22;1466;48.778;9.166;2022-09-17T16:02:30;15.50;98.00
2913;DHT22;1466;48.778;9.166;2022-09-17T16:07:48;15.40;97.90
2913;DHT22;1466;48.778;9.166;2022-09-17T16:10:14;15.30;98.00
2913;DHT22;1466;48.778;9.166;2022-09-17T16:12:40;15.30;97.80
2913;DHT22;1466;48.778;9.166;2022-09-17T16:15:06;15.20;97.60
2913;DHT22;1466;48.778;9.166;2022-09-17T16:22:42;15.30;97.80
2913;DHT22;1466;48.778;9.166;2022-09-17T16:25:08;15.40;97.60
2913;DHT22;1466;48.778;9.166;2022-09-17T16:30:22;15.50;97.30
2913;DHT22;1466;48.778;9.166;2022-09-17T16:32:48;15.50;97.20
2913;DHT22;1466;48.778;9.166;2022-09-17T16:35:15;15.50;97.20
2913;DHT22;1466;48.778;9.166;2022-09-17T16:37:41;15.60;97.30
2913;DHT22;1466;48.778;9.166;2022-09-17T16:40:11;15.50;97.20
2913;DHT22;1466;48.778;9.166;2022-09-17T16:42:37;15.50;97.40
2913;DHT22;1466;48.778;9.166;2022-09-17T16:45:04;15.40;97.20
2913;DHT22;1466;48.778;9.166;2022-09-17T16:47:33;15.40;97.30
2913;DHT22;1466;48.778;9.166;2022-09-17T16:50:02;15.40;97.50
2913;DHT22;1466;48.778;9.166;2022-09-17T16:52:27;15.40;97.60
2913;DHT22;1466;48.778;9.166;2022-09-17T16:54:53;15.40;97.60
2913;DHT22;1466;48.778;9.166;2022-09-17T16:57:18;15.40;97.60
2913;DHT22;1466;48.778;9.166;2022-09-17T16:59:44;15.40;97.70
2913;DHT22;1466;48.778;9.166;2022-09-17T17:02:10;15.30;97.70
2913;DHT22;1466;48.778;9.166;2022-09-17T17:04:35;15.30;97.70
2913;DHT22;1466;48.778;9.166;2022-09-17T17:07:02;15.30;97.80
2913;DHT22;1466;48.778;9.166;2022-09-17T17:09:27;15.20;97.80
2913;DHT22;1466;48.778;9.166;2022-09-17T17:11:53;15.20;97.90
2913;DHT22;1466;48.778;9.166;2022-09-17T17:14:19;15.20;98.70
2913;DHT22;1466;48.778;9.166;2022-09-17T17:16:45;15.00;99.80
2913;DHT22;1466;48.778;9.166;2022-09-17T17:19:10;14.80;99.90
2913;DHT22;1466;48.778;9.166;2022-09-17T17:21:36;14.70;99.90
2913;DHT22;1466;48.778;9.166;2022-09-17T17:24:02;14.60;99.90
2913;DHT22;1466;48.778;9.166;2022-09-17T17:26:28;14.40;99.90
2913;DHT22;1466;48.778;9.166;2022-09-17T17:28:53;14.30;99.90
2913;DHT22;1466;48.778;9.166;2022-09-17T17:31:19;14.20;99.90
2913;DHT22;1466;48.778;9.166;2022-09-17T17:33:44;14.10;99.90
2913;DHT22;1466;48.778;9.166;2022-09-17T17:36:10;14.10;99.90
2913;DHT22;1466;48.778;9.166;2022-09-17T17:38:37;14.10;99.90
2913;DHT22;1466;48.778;9.166;2022-09-17T17:41:09;14.10;99.90
2913;DHT22;1466;48.778;9.166;2022-09-17T17:43:35;14.00;99.90
2913;DHT22;1466;48.778;9.166;2022-09-17T17:46:04;13.90;99.90
2913;DHT22;1466;48.778;9.166;2022-09-17T17:48:30;13.90;99.90
2913;DHT22;1466;48.778;9.166;2022-09-17T17:51:01;13.90;99.90
2913;DHT22;1466;48.778;9.166;2022-09-17T17:53:27;13.90;99.90
2913;DHT22;1466;48.778;9.166;2022-09-17T17:56:19;13.90;99.90
2913;DHT22;1466;48.778;9.166;2022-09-17T17:58:45;13.80;99.90
2913;DHT22;1466;48.778;9.166;2022-09-17T18:01:19;13.70;99.90
2913;DHT22;1466;48.778;9.166;2022-09-17T18:03:45;13.60;99.90
2913;DHT22;1466;48.778;9.166;2022-09-17T18:06:11;13.50;99.90
2913;DHT22;1466;48.778;9.166;2022-09-17T18:08:38;13.50;99.90
2913;DHT22;1466;48.778;9.166;2022-09-17T18:11:05;13.50;99.90
2913;DHT22;1466;48.778;9.166;2022-09-17T18:13:36;13.40;99.90
2913;DHT22;1466;48.778;9.166;2022-09-17T18:16:03;13.40;99.90
2913;DHT22;1466;48.778;9.166;2022-09-17T18:18:32;13.40;99.90
2913;DHT22;1466;48.778;9.166;2022-09-17T18:21:00;13.40;99.90
2913;DHT22;1466;48.778;9.166;2022-09-17T18:23:26;13.50;99.90
2913;DHT22;1466;48.778;9.166;2022-09-17T18:25:53;13.50;99.90
2913;DHT22;1466;48.778;9.166;2022-09-17T18:28:20;13.40;99.90
2913;DHT22;1466;48.778;9.166;2022-09-17T18:30:45;13.40;99.90
2913;DHT22;1466;48.778;9.166;2022-09-17T18:33:11;13.40;99.90
2913;DHT22;1466;48.778;9.166;2022-09-17T18:35:37;13.40;99.90
2913;DHT22;1466;48.778;9.166;2022-09-17T18:38:03;13.40;99.90
2913;DHT22;1466;48.778;9.166;2022-09-17T18:40:31;13.40;99.90
2913;DHT22;1466;48.778;9.166;2022-09-17T18:42:57;13.30;99.90
2913;DHT22;1466;48.778;9.166;2022-09-17T18:45:22;13.30;99.90
2913;DHT22;1466;48.778;9.166;2022-09-17T18:47:48;13.40;99.90
2913;DHT22;1466;48.778;9.166;2022-09-17T18:50:13;13.40;99.90
2913;DHT22;1466;48.778;9.166;2022-09-17T18:52:39;13.30;99.90
2913;DHT22;1466;48.778;9.166;2022-09-17T18:55:05;13.30;99.90
2913;DHT22;1466;48.778;9.166;2022-09-17T18:57:31;13.30;99.90
2913;DHT22;1466;48.778;9.166;2022-09-17T18:59:56;13.30;99.90
2913;DHT22;1466;48.778;9.166;2022-09-17T19:02:23;13.30;99.90
2913;DHT22;1466;48.778;9.166;2022-09-17T19:04:49;13.30;99.90
2913;DHT22;1466;48.778;9.166;2022-09-17T19:07:14;13.20;99.90
2913;DHT22;1466;48.778;9.166;2022-09-17T19:09:40;13.20;99.90
2913;DHT22;1466;48.778;9.166;2022-09-17T19:12:06;12.90;99.90
2913;DHT22;1466;48.778;9.166;2022-09-17T19:14:31;12.80;99.90
2913;DHT22;1466;48.778;9.166;2022-09-17T19:16:57;12.50;99.90
2913;DHT22;1466;48.778;9.166;2022-09-17T19:19:22;12.40;99.90
2913;DHT22;1466;48.778;9.166;2022-09-17T19:21:48;12.20;99.90
2913;DHT22;1466;48.778;9.166;2022-09-17T19:24:15;12.00;99.90
2913;DHT22;1466;48.778;9.166;2022-09-17T19:26:41;11.90;99.90
2913;DHT22;1466;48.778;9.166;2022-09-17T19:29:06;11.80;99.90
2913;DHT22;1466;48.778;9.166;2022-09-17T19:31:33;11.70;99.90
2913;DHT22;1466;48.778;9.166;2022-09-17T19:33:58;11.60;99.90
2913;DHT22;1466;48.778;9.166;2022-09-17T19:36:24;11.70;99.90